createdAt,value
2022-08-07T00:02:40.573Z,4.13
2022-08-07T00:05:30.776Z,4.20
2022-08-07T00:08:17.070Z,4.43
2022-08-07T00:11:06.381Z,4.13
2022-08-07T00:13:53.013Z,4.00
2022-08-07T00:16:41.615Z,3.90
2022-08-07T00:19:34.130Z,3.70
2022-08-07T00:22:35.888Z,4.67
2022-08-07T00:25:24.515Z,4.33
2022-08-07T00:28:15.504Z,3.53
2022-08-07T00:31:05.875Z,3.77
2022-08-07T00:33:52.660Z,3.43
2022-08-07T00:36:43.047Z,3.70
2022-08-07T00:39:30.170Z,3.53
2022-08-07T00:42:17.388Z,3.40
2022-08-07T00:45:06.819Z,3.60
2022-08-07T00:48:07.951Z,3.70
2022-08-07T00:50:57.402Z,3.53
2022-08-07T00:53:50.780Z,3.40
2022-08-07T00:56:42.977Z,3.10
2022-08-07T00:59:35.695Z,3.40
2022-08-07T01:02:29.252Z,3.40
2022-08-07T01:05:19.294Z,3.77
2022-08-07T01:08:09.086Z,4.10
2022-08-07T01:10:56.699Z,3.77
2022-08-07T01:13:56.028Z,3.50
2022-08-07T01:16:43.323Z,3.40
2022-08-07T01:19:38.381Z,3.23
2022-08-07T01:22:29.472Z,3.27
2022-08-07T01:25:53.515Z,3.20
2022-08-07T01:28:24.184Z,3.30
2022-08-07T01:31:15.289Z,3.30
2022-08-07T01:34:04.112Z,3.37
2022-08-07T01:36:58.099Z,3.07
2022-08-07T01:39:47.194Z,3.03
2022-08-07T01:42:40.234Z,3.23
2022-08-07T01:45:42.833Z,3.37
2022-08-07T01:48:33.642Z,3.30
2022-08-07T01:51:24.474Z,3.00
2022-08-07T01:54:32.908Z,3.17
2022-08-07T01:57:29.924Z,3.33
2022-08-07T02:00:28.617Z,3.60
2022-08-07T02:03:21.780Z,3.43
2022-08-07T02:06:31.162Z,3.73
2022-08-07T02:09:33.904Z,3.63
2022-08-07T02:12:32.570Z,3.67
2022-08-07T02:15:23.968Z,3.23
2022-08-07T02:18:14.328Z,3.10
2022-08-07T02:21:06.598Z,3.50
2022-08-07T02:23:53.557Z,3.50
2022-08-07T02:26:41.487Z,3.97
2022-08-07T02:29:31.717Z,3.40
2022-08-07T02:32:23.532Z,3.70
2022-08-07T02:35:20.376Z,3.80
2022-08-07T02:38:31.588Z,4.13
2022-08-07T02:41:21.512Z,3.73
2022-08-07T02:44:08.881Z,3.33
2022-08-07T02:46:59.207Z,3.70
2022-08-07T02:49:58.702Z,3.33
2022-08-07T02:52:49.357Z,3.27
2022-08-07T02:56:02.577Z,3.20
2022-08-07T02:58:48.230Z,2.80
2022-08-07T03:01:40.059Z,3.07
2022-08-07T03:04:29.288Z,2.87
2022-08-07T03:07:17.437Z,3.73
2022-08-07T03:10:09.696Z,3.20
2022-08-07T03:12:56.245Z,3.03
2022-08-07T03:15:55.738Z,3.00
2022-08-07T03:18:44.132Z,2.50
2022-08-07T03:21:32.970Z,2.83
2022-08-07T03:24:27.344Z,2.67
2022-08-07T03:27:15.997Z,2.70
2022-08-07T03:30:17.953Z,2.50
2022-08-07T03:33:07.962Z,3.00
2022-08-07T03:35:54.982Z,3.20
2022-08-07T03:38:44.983Z,2.63
2022-08-07T03:41:42.164Z,3.00
2022-08-07T03:44:35.301Z,3.10
2022-08-07T03:47:22.923Z,2.87
2022-08-07T03:50:10.678Z,2.60
2022-08-07T03:53:00.268Z,2.80
2022-08-07T03:55:58.379Z,2.90
2022-08-07T03:59:08.922Z,3.13
2022-08-07T04:01:58.055Z,2.60
2022-08-07T04:04:45.332Z,2.97
2022-08-07T04:07:41.716Z,3.20
2022-08-07T04:10:29.924Z,2.80
2022-08-07T04:13:19.348Z,3.20
2022-08-07T04:16:07.045Z,3.00
2022-08-07T04:19:03.681Z,3.77
2022-08-07T04:21:59.414Z,3.07
2022-08-07T04:24:52.463Z,3.00
2022-08-07T04:27:43.852Z,2.83
2022-08-07T04:30:39.189Z,3.60
2022-08-07T04:33:31.663Z,3.50
2022-08-07T04:36:22.655Z,3.00
2022-08-07T04:39:12.434Z,3.70
2022-08-07T04:41:59.105Z,3.77
2022-08-07T04:44:54.683Z,3.47
2022-08-07T04:48:07.777Z,3.73
2022-08-07T04:51:05.628Z,3.90
2022-08-07T04:54:06.198Z,4.07
2022-08-07T04:58:13.157Z,4.27
2022-08-07T05:00:14.620Z,4.03
2022-08-07T05:04:00.500Z,3.93
2022-08-07T05:06:43.728Z,4.33
2022-08-07T05:09:46.523Z,3.80
2022-08-07T05:12:39.394Z,4.03
2022-08-07T05:15:37.043Z,4.60
2022-08-07T05:18:29.647Z,4.90
2022-08-07T05:22:00.563Z,4.67
2022-08-07T05:24:30.360Z,4.57
2022-08-07T05:28:03.012Z,4.70
2022-08-07T05:30:30.295Z,5.00
2022-08-07T05:33:20.867Z,4.63
2022-08-07T05:36:12.125Z,5.33
2022-08-07T05:40:05.492Z,4.90
2022-08-07T05:42:17.911Z,5.50
2022-08-07T05:45:28.058Z,6.00
2022-08-07T05:48:31.228Z,5.17
2022-08-07T05:51:22.656Z,4.83
2022-08-07T05:54:30.208Z,5.33
2022-08-07T05:57:18.821Z,5.37
2022-08-07T06:00:08.670Z,5.03
2022-08-07T06:03:06.699Z,5.77
2022-08-07T06:05:56.641Z,5.40
2022-08-07T06:08:46.819Z,5.37
2022-08-07T06:11:34.174Z,5.43
2022-08-07T06:14:21.253Z,5.37
2022-08-07T06:17:10.137Z,5.17
2022-08-07T06:20:03.962Z,5.00
2022-08-07T06:23:02.354Z,6.47
2022-08-07T06:26:01.628Z,6.10
2022-08-07T06:28:50.329Z,5.50
2022-08-07T06:31:49.833Z,6.10
2022-08-07T06:34:37.005Z,5.53
2022-08-07T06:37:44.383Z,5.07
2022-08-07T06:40:35.833Z,5.70
2022-08-07T06:43:25.696Z,5.70
2022-08-07T06:46:14.012Z,5.53
2022-08-07T06:49:04.499Z,6.20
2022-08-07T06:51:53.892Z,4.87
2022-08-07T06:55:34.103Z,5.07
2022-08-07T06:57:57.129Z,5.37
2022-08-07T07:00:46.374Z,4.87
2022-08-07T07:03:48.972Z,4.60
2022-08-07T07:06:39.421Z,4.77
2022-08-07T07:09:47.530Z,4.97
2022-08-07T07:12:41.866Z,5.10
2022-08-07T07:15:41.128Z,5.30
2022-08-07T07:18:47.856Z,5.17
2022-08-07T07:21:40.518Z,4.93
2022-08-07T07:24:57.051Z,5.60
2022-08-07T07:27:55.592Z,5.33
2022-08-07T07:30:52.004Z,4.63
2022-08-07T07:33:40.971Z,4.53
2022-08-07T07:36:32.718Z,4.83
2022-08-07T07:39:22.249Z,4.40
2022-08-07T07:42:13.639Z,5.03
2022-08-07T07:45:06.280Z,4.93
2022-08-07T07:47:54.379Z,4.60
2022-08-07T07:50:43.675Z,4.53
2022-08-07T07:53:34.942Z,4.37
2022-08-07T07:56:29.653Z,4.63
2022-08-07T07:59:19.429Z,4.50
2022-08-07T08:02:35.232Z,4.00
2022-08-07T08:05:23.684Z,4.07
2022-08-07T08:08:36.938Z,4.80
2022-08-07T08:11:47.167Z,4.13
2022-08-07T08:14:31.887Z,3.53
2022-08-07T08:17:57.587Z,4.10
2022-08-07T08:20:34.086Z,3.73
2022-08-07T08:23:41.910Z,3.70
2022-08-07T08:26:50.279Z,3.70
2022-08-07T08:29:54.626Z,4.17
2022-08-07T08:32:48.822Z,3.40
2022-08-07T08:35:39.361Z,3.20
2022-08-07T08:38:41.266Z,2.87
2022-08-07T08:41:58.511Z,2.60
2022-08-07T08:45:04.158Z,2.57
2022-08-07T08:48:01.411Z,2.60
2022-08-07T08:50:56.415Z,2.80
2022-08-07T08:53:48.687Z,2.43
2022-08-07T08:56:47.173Z,1.50
2022-08-07T08:59:51.916Z,2.50
2022-08-07T09:02:52.581Z,1.90
2022-08-07T09:05:46.702Z,1.87
2022-08-07T09:08:42.542Z,1.73
2022-08-07T09:11:50.612Z,1.40
2022-08-07T09:14:58.735Z,1.20
2022-08-07T09:17:58.896Z,1.27
2022-08-07T09:21:01.384Z,1.00
2022-08-07T09:24:31.665Z,1.07
2022-08-07T09:27:16.543Z,1.40
2022-08-07T09:30:08.681Z,1.67
2022-08-07T09:33:16.611Z,1.20
2022-08-07T09:36:16.744Z,1.30
2022-08-07T09:39:54.900Z,1.40
2022-08-07T09:42:47.793Z,1.20
2022-08-07T09:47:24.370Z,1.03
2022-08-07T09:50:01.739Z,1.00
2022-08-07T09:52:34.093Z,1.10
2022-08-07T09:55:29.505Z,1.17
2022-08-07T09:58:51.067Z,0.73
2022-08-07T10:02:03.171Z,1.00
2022-08-07T10:05:58.900Z,1.50
2022-08-07T10:09:01.689Z,1.20
2022-08-07T10:12:10.528Z,1.60
2022-08-07T10:15:19.676Z,1.47
2022-08-07T10:18:45.740Z,1.23
2022-08-07T10:22:12.086Z,1.20
2022-08-07T10:25:22.614Z,1.70
2022-08-07T10:28:43.481Z,1.20
2022-08-07T10:31:54.357Z,1.30
2022-08-07T10:34:54.621Z,1.20
2022-08-07T10:38:15.472Z,1.40
2022-08-07T10:41:10.400Z,1.60
2022-08-07T10:44:07.466Z,1.60
2022-08-07T10:47:02.924Z,1.77
2022-08-07T10:49:59.250Z,1.23
2022-08-07T10:52:54.171Z,1.60
2022-08-07T10:55:50.280Z,1.70
2022-08-07T10:59:07.750Z,1.60
2022-08-07T11:02:11.898Z,1.50
2022-08-07T11:05:11.217Z,1.77
2022-08-07T11:08:03.844Z,1.80
2022-08-07T11:10:59.782Z,1.60
2022-08-07T11:14:46.451Z,1.60
2022-08-07T11:17:07.368Z,1.70
2022-08-07T11:20:03.371Z,1.50
2022-08-07T11:22:56.425Z,1.30
2022-08-07T11:25:50.471Z,1.63
2022-08-07T11:28:43.442Z,1.87
2022-08-07T11:31:47.527Z,1.57
2022-08-07T11:34:43.041Z,1.43
2022-08-07T11:38:08.693Z,1.40
2022-08-07T11:41:00.016Z,1.37
2022-08-07T11:44:12.175Z,1.43
2022-08-07T11:47:08.532Z,1.30
2022-08-07T11:50:31.993Z,1.17
2022-08-07T11:53:35.264Z,1.40
2022-08-07T11:56:37.541Z,1.37
2022-08-07T12:00:10.820Z,1.30
2022-08-07T12:03:45.240Z,1.30
2022-08-07T12:06:51.573Z,1.60
2022-08-07T12:09:50.474Z,1.10
2022-08-07T12:12:41.520Z,1.70
2022-08-07T12:15:46.013Z,1.40
2022-08-07T12:18:45.300Z,1.23
2022-08-07T12:21:55.615Z,1.40
2022-08-07T12:26:00.944Z,1.20
2022-08-07T12:28:30.956Z,1.00
2022-08-07T12:31:25.557Z,1.27
2022-08-07T12:34:36.904Z,1.27
2022-08-07T12:37:28.482Z,1.47
2022-08-07T12:40:46.414Z,1.40
2022-08-07T12:44:04.150Z,1.47
2022-08-07T12:46:56.232Z,1.20
2022-08-07T12:49:53.371Z,1.30
2022-08-07T12:52:53.083Z,1.60
2022-08-07T12:56:02.461Z,1.60
2022-08-07T12:58:53.217Z,1.57
2022-08-07T13:02:10.169Z,1.50
2022-08-07T13:05:14.746Z,1.60
2022-08-07T13:08:35.008Z,1.60
2022-08-07T13:12:02.780Z,1.40
2022-08-07T13:14:55.314Z,1.43
2022-08-07T13:17:49.617Z,1.53
2022-08-07T13:20:51.086Z,1.60
2022-08-07T13:24:01.117Z,1.50
2022-08-07T13:26:58.664Z,1.50
2022-08-07T13:29:57.245Z,1.83
2022-08-07T13:32:52.879Z,1.50
2022-08-07T13:35:59.745Z,1.50
2022-08-07T13:39:13.146Z,1.50
2022-08-07T13:42:14.720Z,1.53
2022-08-07T13:46:07.143Z,1.60
2022-08-07T13:48:20.874Z,1.90
2022-08-07T13:51:28.310Z,1.60
2022-08-07T13:54:33.623Z,1.60
2022-08-07T13:57:37.662Z,1.77
2022-08-07T14:00:50.429Z,1.53
2022-08-07T14:04:09.617Z,1.73
2022-08-07T14:06:50.503Z,1.50
2022-08-07T14:10:02.375Z,1.97
2022-08-07T14:12:55.779Z,1.43
2022-08-07T14:15:45.109Z,1.23
2022-08-07T14:18:42.583Z,1.50
2022-08-07T14:22:04.222Z,1.70
2022-08-07T14:24:46.637Z,1.70
2022-08-07T14:28:12.342Z,1.27
2022-08-07T14:30:52.313Z,1.90
2022-08-07T14:33:44.936Z,1.50
2022-08-07T14:36:34.540Z,1.83
2022-08-07T14:40:17.169Z,1.77
2022-08-07T14:42:31.376Z,1.50
2022-08-07T14:48:32.580Z,2.10
2022-08-07T14:51:23.251Z,1.60
2022-08-07T15:00:35.609Z,1.40
2022-08-07T15:03:51.361Z,1.50
2022-08-07T15:06:37.811Z,1.50
2022-08-07T15:09:59.718Z,1.40
2022-08-07T15:12:42.079Z,1.50
2022-08-07T15:15:52.451Z,1.80
2022-08-07T15:18:45.897Z,1.50
2022-08-07T15:21:43.895Z,1.77
2022-08-07T15:25:15.255Z,1.90
2022-08-07T15:28:32.930Z,1.60
2022-08-07T15:31:05.280Z,1.60
2022-08-07T15:33:59.724Z,1.70
2022-08-07T15:37:02.676Z,1.67
2022-08-07T15:39:57.274Z,1.80
2022-08-07T15:42:53.868Z,1.70
2022-08-07T15:45:57.651Z,1.87
2022-08-07T15:49:04.000Z,1.70
2022-08-07T15:54:47.791Z,1.70
2022-08-07T15:57:47.527Z,1.63
2022-08-07T16:00:39.758Z,1.50
2022-08-07T16:03:47.370Z,1.80
2022-08-07T16:06:39.413Z,1.90
2022-08-07T16:09:41.216Z,1.87
2022-08-07T16:12:39.158Z,1.43
2022-08-07T16:15:55.466Z,1.87
2022-08-07T16:18:59.124Z,2.00
2022-08-07T16:22:03.595Z,2.00
2022-08-07T16:25:00.600Z,1.70
2022-08-07T16:27:57.327Z,1.80
2022-08-07T16:30:55.400Z,1.40
2022-08-07T16:34:01.373Z,1.33
2022-08-07T16:38:02.919Z,1.60
2022-08-07T16:41:11.952Z,1.50
2022-08-07T16:44:47.486Z,1.60
2022-08-07T16:48:28.446Z,1.53
2022-08-07T16:51:52.042Z,1.80
2022-08-07T16:54:55.384Z,1.73
2022-08-07T16:58:01.482Z,1.87
2022-08-07T17:01:15.708Z,1.63
2022-08-07T17:04:12.257Z,1.87
2022-08-07T17:07:10.027Z,1.73
2022-08-07T17:10:08.731Z,1.77
2022-08-07T17:13:03.502Z,1.90
2022-08-07T17:15:59.455Z,1.90
2022-08-07T17:19:01.815Z,1.70
2022-08-07T17:21:52.303Z,1.90
2022-08-07T17:24:56.124Z,1.83
2022-08-07T17:27:58.111Z,2.07
2022-08-07T17:30:58.256Z,1.70
2022-08-07T17:34:15.256Z,1.90
2022-08-07T17:37:09.487Z,1.90
2022-08-07T17:40:08.182Z,1.70
2022-08-07T17:43:18.062Z,1.70
2022-08-07T17:46:16.241Z,3.30
2022-08-07T17:49:09.579Z,2.50
2022-08-07T17:52:00.352Z,1.97
2022-08-07T17:54:54.291Z,2.93
2022-08-07T17:57:58.822Z,3.03
2022-08-07T18:00:55.887Z,1.73
2022-08-07T18:04:04.158Z,1.80
2022-08-07T18:07:20.439Z,2.00
2022-08-07T18:10:32.370Z,1.83
2022-08-07T18:13:40.662Z,1.83
2022-08-07T18:16:34.166Z,2.57
2022-08-07T18:21:08.595Z,1.97
2022-08-07T18:22:37.721Z,1.90
2022-08-07T18:25:40.966Z,1.83
2022-08-07T18:28:58.140Z,1.93
2022-08-07T18:31:59.413Z,1.90
2022-08-07T18:35:09.889Z,1.77
2022-08-07T18:38:54.868Z,2.30
2022-08-07T18:41:45.030Z,1.80
2022-08-07T18:45:44.168Z,1.60
2022-08-07T18:48:02.650Z,1.70
2022-08-07T18:50:59.638Z,1.90
2022-08-07T18:54:27.677Z,1.80
2022-08-07T18:57:40.066Z,1.80
2022-08-07T19:00:53.761Z,1.60
2022-08-07T19:03:52.127Z,2.30
2022-08-07T19:06:49.345Z,2.47
2022-08-07T19:09:59.039Z,1.80
2022-08-07T19:12:59.298Z,2.10
2022-08-07T19:16:43.633Z,1.90
2022-08-07T19:19:19.744Z,2.10
2022-08-07T19:22:30.990Z,2.10
2022-08-07T19:26:23.633Z,1.90
2022-08-07T19:30:53.876Z,2.00
2022-08-07T19:32:08.274Z,1.90
2022-08-07T19:34:51.788Z,1.87
2022-08-07T19:37:56.824Z,1.60
2022-08-07T19:40:49.959Z,1.63
2022-08-07T19:43:48.730Z,1.77
2022-08-07T19:46:55.406Z,2.00
2022-08-07T19:49:57.233Z,1.80
2022-08-07T19:52:46.805Z,1.70
2022-08-07T19:55:56.966Z,2.13
2022-08-07T19:58:53.230Z,1.90
2022-08-07T20:01:56.090Z,1.93
2022-08-07T20:04:49.491Z,1.60
2022-08-07T20:07:47.219Z,1.60
2022-08-07T20:10:54.780Z,1.80
2022-08-07T20:13:45.852Z,1.50
2022-08-07T20:16:36.834Z,1.90
2022-08-07T20:19:28.726Z,2.00
2022-08-07T20:22:36.016Z,1.70
2022-08-07T20:25:25.012Z,1.67
2022-08-07T20:28:17.600Z,1.80
2022-08-07T20:31:21.255Z,1.93
2022-08-07T20:34:10.044Z,2.10
2022-08-07T20:36:59.168Z,2.27
2022-08-07T20:40:02.693Z,2.00
2022-08-07T20:42:56.447Z,1.97
2022-08-07T20:46:25.920Z,2.00
2022-08-07T20:49:54.678Z,2.10
2022-08-07T20:52:14.064Z,2.10
2022-08-07T20:55:05.491Z,2.33
2022-08-07T20:58:02.437Z,1.80
2022-08-07T21:00:57.738Z,2.27
2022-08-07T21:04:13.075Z,2.20
2022-08-07T21:06:58.916Z,2.20
2022-08-07T21:10:00.225Z,2.33
2022-08-07T21:12:49.308Z,2.10
2022-08-07T21:15:48.203Z,2.20
2022-08-07T21:18:50.520Z,2.37
2022-08-07T21:21:56.772Z,2.40
2022-08-07T21:24:55.887Z,2.60
2022-08-07T21:28:02.066Z,2.03
2022-08-07T21:30:57.574Z,2.43
2022-08-07T21:33:51.418Z,2.23
2022-08-07T21:36:50.355Z,2.37
2022-08-07T21:39:54.906Z,2.20
2022-08-07T21:42:53.047Z,2.50
2022-08-07T21:46:09.178Z,2.27
2022-08-07T21:49:00.376Z,2.40
2022-08-07T21:52:04.084Z,2.27
2022-08-07T21:55:00.742Z,2.20
2022-08-07T21:58:03.182Z,2.40
2022-08-07T22:00:55.122Z,2.00
2022-08-07T22:03:48.654Z,2.50
2022-08-07T22:06:44.956Z,2.80
2022-08-07T22:09:53.804Z,2.43
2022-08-07T22:12:46.780Z,2.50
2022-08-07T22:16:42.598Z,2.70
2022-08-07T22:18:59.188Z,2.60
2022-08-07T22:22:10.875Z,2.10
2022-08-07T22:25:13.859Z,2.67
2022-08-07T22:28:31.847Z,2.73
2022-08-07T22:31:56.075Z,3.00
2022-08-07T22:34:53.021Z,2.57
2022-08-07T22:38:01.716Z,2.60
2022-08-07T22:40:57.755Z,2.40
2022-08-07T22:43:50.653Z,2.63
2022-08-07T22:47:19.140Z,2.70
2022-08-07T22:50:34.763Z,2.87
2022-08-07T22:54:07.946Z,2.80
2022-08-07T22:57:03.899Z,3.00
2022-08-07T22:59:59.748Z,2.80
2022-08-07T23:03:03.711Z,2.63
2022-08-07T23:06:14.667Z,3.17
2022-08-07T23:10:06.415Z,3.43
2022-08-07T23:12:57.672Z,3.10
2022-08-07T23:16:05.402Z,2.83
2022-08-07T23:19:16.670Z,3.20
2022-08-07T23:22:24.890Z,2.87
2022-08-07T23:25:28.212Z,3.27
2022-08-07T23:28:53.375Z,3.10
2022-08-07T23:34:19.670Z,3.00
2022-08-07T23:35:13.369Z,3.47
2022-08-07T23:38:43.556Z,2.90
2022-08-07T23:42:04.299Z,2.80
2022-08-07T23:45:33.535Z,3.60
2022-08-07T23:48:34.777Z,3.70
2022-08-07T23:53:06.749Z,3.67
2022-08-07T23:54:44.566Z,3.40
2022-08-07T23:57:42.285Z,3.50
